createdAt,value
2022-08-11T00:02:16.861Z,77029.81
2022-08-11T00:04:45.961Z,77035.78
2022-08-11T00:07:13.199Z,77031.81
2022-08-11T00:09:40.747Z,77021.88
2022-08-11T00:12:22.450Z,77039.75
2022-08-11T00:15:02.967Z,77041.75
2022-08-11T00:17:33.053Z,77057.66
2022-08-11T00:20:16.587Z,77059.63
2022-08-11T00:22:46.915Z,77061.63
2022-08-11T00:25:17.201Z,77067.59
2022-08-11T00:27:44.220Z,77065.59
2022-08-11T00:30:12.392Z,77071.56
2022-08-11T00:32:41.529Z,77073.56
2022-08-11T00:35:51.588Z,77077.53
2022-08-11T00:38:03.501Z,77095.41
2022-08-11T00:40:55.991Z,77093.44
2022-08-11T00:43:49.321Z,77099.38
2022-08-11T00:46:35.789Z,77109.31
2022-08-11T00:49:13.503Z,77119.25
2022-08-11T00:52:03.953Z,77117.28
2022-08-11T00:55:01.970Z,77123.25
2022-08-11T00:57:36.770Z,77129.19
2022-08-11T01:00:27.266Z,77135.16
2022-08-11T01:03:33.636Z,77137.16
2022-08-11T01:06:15.398Z,77143.13
2022-08-11T01:09:17.981Z,77145.09
2022-08-11T01:12:40.125Z,77149.06
2022-08-11T01:15:57.038Z,77164.97
2022-08-11T01:18:45.492Z,77163.00
2022-08-11T01:21:56.752Z,77176.91
2022-08-11T01:24:49.008Z,77176.91
2022-08-11T01:27:43.694Z,77180.88
2022-08-11T01:30:19.558Z,77176.91
2022-08-11T01:33:23.825Z,77190.81
2022-08-11T01:36:06.002Z,77200.75
2022-08-11T01:39:10.312Z,77204.72
2022-08-11T01:42:01.656Z,77212.69
2022-08-11T01:45:02.184Z,77220.63
2022-08-11T01:47:52.554Z,77220.63
2022-08-11T01:50:26.310Z,77228.56
2022-08-11T01:53:11.054Z,77228.56
2022-08-11T01:56:05.103Z,77238.50
2022-08-11T01:58:50.143Z,77240.50
2022-08-11T02:01:37.640Z,77238.50
2022-08-11T02:04:33.635Z,77246.47
2022-08-11T02:07:21.489Z,77252.44
2022-08-11T02:10:36.513Z,77248.44
2022-08-11T02:13:20.488Z,77254.41
2022-08-11T02:16:13.784Z,77252.44
2022-08-11T02:19:04.041Z,77260.38
2022-08-11T02:22:02.625Z,77258.38
2022-08-11T02:24:44.813Z,77270.31
2022-08-11T02:27:21.577Z,77272.31
2022-08-11T02:29:56.520Z,77282.25
2022-08-11T02:32:53.358Z,77280.25
2022-08-11T02:35:41.334Z,77282.25
2022-08-11T02:38:26.646Z,77290.19
2022-08-11T02:41:03.191Z,77310.06
2022-08-11T02:44:04.341Z,77304.09
2022-08-11T02:47:07.289Z,77312.06
2022-08-11T02:49:59.945Z,77312.06
2022-08-11T02:53:02.286Z,77312.06
2022-08-11T02:55:48.790Z,77320.00
2022-08-11T02:59:24.313Z,77322.00
2022-08-11T03:02:32.553Z,77329.94
2022-08-11T03:05:12.684Z,77337.91
2022-08-11T03:07:55.537Z,77343.84
2022-08-11T03:10:28.507Z,77347.84
2022-08-11T03:13:38.247Z,77343.84
2022-08-11T03:16:35.574Z,77353.78
2022-08-11T03:19:14.104Z,77369.69
2022-08-11T03:22:02.207Z,77377.66
2022-08-11T03:25:00.778Z,77395.53
2022-08-11T03:27:36.921Z,77397.53
2022-08-11T03:30:19.231Z,77399.50
2022-08-11T03:33:26.732Z,77405.47
2022-08-11T03:36:18.280Z,77401.50
2022-08-11T03:39:10.854Z,77405.47
2022-08-11T03:42:10.092Z,77409.44
2022-08-11T03:44:36.766Z,77411.44
2022-08-11T03:47:55.970Z,77419.38
2022-08-11T03:50:54.867Z,77419.38
2022-08-11T03:53:59.644Z,77431.31
2022-08-11T03:57:11.157Z,77435.28
2022-08-11T03:59:59.541Z,77439.25
2022-08-11T04:02:50.531Z,77431.31
2022-08-11T04:05:27.881Z,77437.28
2022-08-11T04:08:16.007Z,77433.31
2022-08-11T04:11:00.911Z,77437.28
2022-08-11T04:14:23.079Z,77437.28
2022-08-11T04:17:08.188Z,77441.25
2022-08-11T04:19:46.732Z,77451.19
2022-08-11T04:22:28.165Z,77449.19
2022-08-11T04:25:27.432Z,77445.22
2022-08-11T04:28:00.636Z,77439.25
2022-08-11T04:31:44.472Z,77437.28
2022-08-11T04:34:19.494Z,77437.28
2022-08-11T04:37:26.248Z,77431.31
2022-08-11T04:40:26.601Z,77429.31
2022-08-11T04:43:27.494Z,77425.34
2022-08-11T04:46:16.675Z,77425.34
2022-08-11T04:49:34.200Z,77421.38
2022-08-11T04:52:41.703Z,77405.47
2022-08-11T04:56:14.781Z,77389.56
2022-08-11T04:59:37.754Z,77385.59
2022-08-11T05:02:36.788Z,77369.69
2022-08-11T05:05:32.641Z,77355.78
2022-08-11T05:08:11.179Z,77347.84
2022-08-11T05:10:47.803Z,77337.91
2022-08-11T05:13:50.669Z,77322.00
2022-08-11T05:16:46.170Z,77318.03
2022-08-11T05:19:37.364Z,77312.06
2022-08-11T05:22:43.746Z,77294.16
2022-08-11T05:26:08.975Z,77278.25
2022-08-11T05:28:51.700Z,77274.28
2022-08-11T05:31:43.183Z,77262.38
2022-08-11T05:34:36.507Z,77246.47
2022-08-11T05:37:29.037Z,77250.44
2022-08-11T05:40:28.511Z,77232.56
2022-08-11T05:43:19.904Z,77218.63
2022-08-11T05:46:16.959Z,77208.69
2022-08-11T05:49:11.054Z,77190.81
2022-08-11T05:52:12.659Z,77178.88
2022-08-11T05:54:59.256Z,77157.03
2022-08-11T05:57:50.154Z,77155.03
2022-08-11T06:00:19.081Z,77145.09
2022-08-11T06:02:57.677Z,77123.25
2022-08-11T06:05:25.152Z,77107.34
2022-08-11T06:07:57.190Z,77099.38
2022-08-11T06:10:35.726Z,77083.50
2022-08-11T06:13:05.077Z,77077.53
2022-08-11T06:15:34.794Z,77061.63
2022-08-11T06:18:03.046Z,77049.69
2022-08-11T06:21:30.834Z,77039.75
2022-08-11T06:23:59.719Z,77023.88
2022-08-11T06:26:26.807Z,77013.94
2022-08-11T06:28:59.444Z,77002.00
2022-08-11T06:31:26.317Z,76978.16
2022-08-11T06:34:08.104Z,76960.25
2022-08-11T06:36:42.310Z,76948.34
2022-08-11T06:39:38.517Z,76928.47
2022-08-11T06:42:13.243Z,76912.56
2022-08-11T06:45:07.387Z,76900.66
2022-08-11T06:47:35.361Z,76892.69
2022-08-11T06:50:21.447Z,76872.81
2022-08-11T06:52:48.859Z,76847.00
2022-08-11T06:55:56.763Z,76807.25
2022-08-11T06:58:48.598Z,76795.31
2022-08-11T07:01:21.445Z,76767.50
2022-08-11T07:03:58.456Z,76745.63
2022-08-11T07:06:50.262Z,76725.75
2022-08-11T07:10:03.761Z,76711.84
2022-08-11T07:12:57.791Z,76690.00
2022-08-11T07:16:10.623Z,76660.19
2022-08-11T07:18:54.142Z,76630.38
2022-08-11T07:22:00.745Z,76596.59
2022-08-11T07:25:01.419Z,76584.66
2022-08-11T07:27:54.658Z,76570.75
2022-08-11T07:30:21.530Z,76562.81
2022-08-11T07:32:55.493Z,76521.09
2022-08-11T07:35:28.305Z,76491.28
2022-08-11T07:38:01.558Z,76487.28
2022-08-11T07:40:29.835Z,76473.38
2022-08-11T07:42:59.177Z,76445.56
2022-08-11T07:45:46.633Z,76451.53
2022-08-11T07:48:33.860Z,76413.78
2022-08-11T07:51:20.305Z,76417.75
2022-08-11T07:53:58.535Z,76407.81
2022-08-11T07:57:07.402Z,76395.91
2022-08-11T08:00:04.323Z,76381.97
2022-08-11T08:02:48.751Z,76364.09
2022-08-11T08:05:36.759Z,76378.00
2022-08-11T08:08:23.107Z,76360.13
2022-08-11T08:11:08.238Z,76336.28
2022-08-11T08:13:54.620Z,76300.50
2022-08-11T08:16:40.156Z,76300.50
2022-08-11T08:19:07.175Z,76272.69
2022-08-11T08:21:34.086Z,76256.78
2022-08-11T08:24:03.253Z,76221.03
2022-08-11T08:26:51.818Z,76197.19
2022-08-11T08:29:38.933Z,76191.22
2022-08-11T08:32:09.999Z,76169.38
2022-08-11T08:34:40.198Z,76155.47
2022-08-11T08:37:16.089Z,76153.47
2022-08-11T08:39:54.489Z,76145.53
2022-08-11T08:42:29.964Z,76101.81
2022-08-11T08:45:06.430Z,76091.88
2022-08-11T08:47:42.913Z,76070.03
2022-08-11T08:50:19.353Z,76048.16
2022-08-11T08:52:54.564Z,76034.25
2022-08-11T08:55:22.191Z,76060.09
2022-08-11T08:57:52.724Z,76054.13
2022-08-11T09:00:23.456Z,76030.28
2022-08-11T09:02:51.928Z,76010.41
2022-08-11T09:05:19.908Z,76004.47
2022-08-11T09:07:51.372Z,75984.59
2022-08-11T09:10:20.375Z,75982.59
2022-08-11T09:12:48.378Z,75980.63
2022-08-11T09:15:19.909Z,75958.75
2022-08-11T09:17:50.557Z,75952.81
2022-08-11T09:20:25.751Z,75948.81
2022-08-11T09:26:22.196Z,75926.97
2022-08-11T09:28:58.063Z,75919.03
2022-08-11T09:31:26.796Z,75899.16
2022-08-11T09:33:55.310Z,75895.19
2022-08-11T09:36:41.286Z,75903.13
2022-08-11T09:39:31.130Z,75875.31
2022-08-11T09:42:03.483Z,75863.41
2022-08-11T09:44:49.585Z,75847.50
2022-08-11T09:47:23.448Z,75849.50
2022-08-11T09:49:53.214Z,75831.59
2022-08-11T09:52:21.911Z,75841.53
2022-08-11T09:54:50.838Z,75891.22
2022-08-11T09:57:43.589Z,75899.16
2022-08-11T10:00:14.174Z,75919.03
2022-08-11T10:02:45.310Z,75903.13
2022-08-11T10:05:33.609Z,75857.44
2022-08-11T10:08:01.498Z,75805.78
2022-08-11T10:10:32.178Z,75770.03
2022-08-11T10:14:12.240Z,75754.13
2022-08-11T10:16:03.610Z,75728.31
2022-08-11T10:18:49.409Z,75732.28
2022-08-11T10:21:36.583Z,75738.22
2022-08-11T10:24:23.786Z,75718.38
2022-08-11T10:27:03.474Z,75664.72
2022-08-11T10:29:56.051Z,75666.72
2022-08-11T10:32:58.759Z,75708.44
2022-08-11T10:35:29.540Z,75676.66
2022-08-11T10:38:08.848Z,75682.59
2022-08-11T10:40:39.585Z,75656.78
2022-08-11T10:43:13.555Z,75652.81
2022-08-11T10:46:03.463Z,75674.66
2022-08-11T10:48:35.100Z,75658.75
2022-08-11T10:51:14.592Z,75660.75
2022-08-11T10:54:07.537Z,75686.56
2022-08-11T10:56:58.176Z,75676.66
2022-08-11T10:59:28.297Z,75652.81
2022-08-11T11:01:56.077Z,75626.97
2022-08-11T11:04:59.972Z,75615.06
2022-08-11T11:07:44.524Z,75644.84
2022-08-11T11:10:11.737Z,75628.97
2022-08-11T11:13:12.147Z,75615.06
2022-08-11T11:16:01.292Z,75589.22
2022-08-11T11:18:37.143Z,75569.38
2022-08-11T11:21:07.920Z,75565.41
2022-08-11T11:23:41.881Z,75573.34
2022-08-11T11:26:41.285Z,75569.38
2022-08-11T11:29:54.732Z,75579.31
2022-08-11T11:32:36.129Z,75577.31
2022-08-11T11:35:44.704Z,75581.28
2022-08-11T11:38:13.959Z,75557.44
2022-08-11T11:40:41.963Z,75545.53
2022-08-11T11:43:16.843Z,75533.59
2022-08-11T11:45:43.998Z,75541.56
2022-08-11T11:48:12.039Z,75527.66
2022-08-11T11:50:39.082Z,75525.66
2022-08-11T11:53:08.269Z,75525.66
2022-08-11T11:55:37.617Z,75501.81
2022-08-11T11:58:23.875Z,75493.88
2022-08-11T12:01:12.300Z,75476.00
2022-08-11T12:03:40.296Z,75468.06
2022-08-11T12:06:08.817Z,75470.03
2022-08-11T12:08:37.208Z,75479.97
2022-08-11T12:11:25.515Z,75485.94
2022-08-11T12:13:55.745Z,75507.78
2022-08-11T12:16:33.299Z,75525.66
2022-08-11T12:19:06.172Z,75507.78
2022-08-11T12:21:36.022Z,75485.94
2022-08-11T12:24:22.403Z,75489.91
2022-08-11T12:27:14.950Z,75472.03
2022-08-11T12:29:36.500Z,75489.91
2022-08-11T12:32:09.021Z,75462.09
2022-08-11T12:34:36.574Z,75489.91
2022-08-11T12:37:06.965Z,75493.88
2022-08-11T12:40:16.909Z,75489.91
2022-08-11T12:43:20.787Z,75495.88
2022-08-11T12:45:54.095Z,75505.78
2022-08-11T12:49:00.283Z,75485.94
2022-08-11T12:52:01.511Z,75450.16
2022-08-11T12:54:57.520Z,75470.03
2022-08-11T12:57:50.511Z,75466.06
2022-08-11T13:00:37.080Z,75472.03
2022-08-11T13:03:25.229Z,75452.16
2022-08-11T13:05:55.564Z,75428.31
2022-08-11T13:08:27.889Z,75436.28
2022-08-11T13:11:15.180Z,75438.25
2022-08-11T13:13:54.542Z,75448.19
2022-08-11T13:16:27.993Z,75454.16
2022-08-11T13:18:56.304Z,75456.13
2022-08-11T13:21:23.932Z,75452.16
2022-08-11T13:24:00.389Z,75428.31
2022-08-11T13:26:46.818Z,75426.34
2022-08-11T13:29:18.125Z,75414.41
2022-08-11T13:31:46.232Z,75378.66
2022-08-11T13:34:14.826Z,75398.53
2022-08-11T13:36:42.217Z,75406.47
2022-08-11T13:39:10.436Z,75394.56
2022-08-11T13:41:39.384Z,75382.63
2022-08-11T13:44:12.407Z,75398.53
2022-08-11T13:46:44.398Z,75382.63
2022-08-11T13:49:15.483Z,75378.66
2022-08-11T13:51:42.396Z,75372.69
2022-08-11T13:54:13.186Z,75366.75
2022-08-11T13:56:42.934Z,75380.66
2022-08-11T13:59:10.454Z,75372.69
2022-08-11T14:02:03.735Z,75390.56
2022-08-11T14:04:35.742Z,75380.66
2022-08-11T14:07:07.397Z,75388.59
2022-08-11T14:09:43.262Z,75398.53
2022-08-11T14:12:41.811Z,75408.47
2022-08-11T14:15:22.756Z,75392.56
2022-08-11T14:17:55.124Z,75358.78
2022-08-11T14:20:39.890Z,75364.75
2022-08-11T14:23:11.402Z,75336.94
2022-08-11T14:26:02.405Z,75344.88
2022-08-11T14:28:37.546Z,75332.97
2022-08-11T14:31:09.433Z,75311.13
2022-08-11T14:33:59.886Z,75315.09
2022-08-11T14:36:25.874Z,75277.34
2022-08-11T14:38:55.721Z,75271.38
2022-08-11T14:42:11.191Z,75283.31
2022-08-11T14:44:50.930Z,75261.47
2022-08-11T14:47:23.901Z,75239.59
2022-08-11T14:50:09.370Z,75251.53
2022-08-11T14:52:39.037Z,75261.47
2022-08-11T14:55:26.470Z,75263.44
2022-08-11T14:58:04.955Z,75227.69
2022-08-11T15:00:34.415Z,75092.63
2022-08-11T15:03:11.861Z,74953.56
2022-08-11T15:06:02.261Z,74858.25
2022-08-11T15:08:52.540Z,74808.59
2022-08-11T15:11:40.678Z,74816.53
2022-08-11T15:14:09.132Z,74687.44
2022-08-11T15:16:58.540Z,74608.00
2022-08-11T15:19:27.171Z,74510.66
2022-08-11T15:22:12.250Z,74399.47
2022-08-11T15:24:38.934Z,74373.66
2022-08-11T15:27:32.262Z,74437.19
2022-08-11T15:30:32.538Z,74586.16
2022-08-11T15:33:23.168Z,74602.03
2022-08-11T15:36:10.182Z,74542.44
2022-08-11T15:38:42.791Z,74504.72
2022-08-11T15:41:32.012Z,74369.66
2022-08-11T15:44:19.857Z,74220.72
2022-08-11T15:46:52.508Z,74135.34
2022-08-11T15:50:11.271Z,74204.84
2022-08-11T15:52:33.008Z,74230.66
2022-08-11T15:55:06.269Z,74192.94
2022-08-11T15:57:55.617Z,74252.50
2022-08-11T16:00:41.338Z,74592.09
2022-08-11T16:03:54.487Z,74806.59
2022-08-11T16:06:16.561Z,74939.66
2022-08-11T16:08:44.916Z,75054.88
2022-08-11T16:11:13.349Z,75106.53
2022-08-11T16:13:40.575Z,75152.22
2022-08-11T16:16:16.543Z,75176.03
2022-08-11T16:18:47.215Z,75213.78
2022-08-11T16:21:33.902Z,75219.75
2022-08-11T16:24:05.995Z,75249.53
2022-08-11T16:27:07.470Z,75277.34
2022-08-11T16:29:25.367Z,75299.19
2022-08-11T16:32:13.504Z,75344.88
2022-08-11T16:35:00.956Z,75390.56
2022-08-11T16:37:46.994Z,75420.38
2022-08-11T16:40:15.183Z,75442.22
2022-08-11T16:43:10.095Z,75460.09
2022-08-11T16:46:12.839Z,75489.91
2022-08-11T16:48:42.705Z,75493.88
2022-08-11T16:51:12.123Z,75495.88
2022-08-11T16:53:59.693Z,75517.72
2022-08-11T16:56:45.956Z,75537.59
2022-08-11T16:59:20.849Z,75541.56
2022-08-11T17:01:54.712Z,75555.47
2022-08-11T17:04:58.152Z,75577.31
2022-08-11T17:07:47.916Z,75589.22
2022-08-11T17:10:52.454Z,75601.16
2022-08-11T17:13:25.854Z,75630.94
2022-08-11T17:16:08.994Z,75652.81
2022-08-11T17:18:58.276Z,75674.66
2022-08-11T17:21:26.436Z,75692.53
2022-08-11T17:24:09.387Z,75708.44
2022-08-11T17:26:58.316Z,75730.28
2022-08-11T17:29:53.668Z,75750.16
2022-08-11T17:33:00.113Z,75762.06
2022-08-11T17:35:38.737Z,75787.91
2022-08-11T17:38:13.006Z,75801.81
2022-08-11T17:41:02.249Z,75815.72
2022-08-11T17:43:49.413Z,75829.63
2022-08-11T17:46:36.156Z,75851.47
2022-08-11T17:49:07.814Z,75865.38
2022-08-11T17:51:54.710Z,75869.34
2022-08-11T17:54:41.929Z,75889.22
2022-08-11T17:57:29.180Z,75907.09
2022-08-11T17:59:57.888Z,75913.06
2022-08-11T18:02:53.720Z,75925.00
2022-08-11T18:05:23.720Z,75940.88
2022-08-11T18:08:14.399Z,75944.84
2022-08-11T18:11:00.526Z,75954.78
2022-08-11T18:13:47.611Z,75958.75
2022-08-11T18:16:33.235Z,75988.56
2022-08-11T18:19:18.667Z,76004.47
2022-08-11T18:22:14.976Z,76014.41
2022-08-11T18:25:08.495Z,76028.31
2022-08-11T18:27:56.823Z,76042.22
2022-08-11T18:30:43.551Z,76056.13
2022-08-11T18:33:56.653Z,76072.00
2022-08-11T18:36:43.788Z,76085.91
2022-08-11T18:39:32.231Z,76113.75
2022-08-11T18:42:29.385Z,76127.66
2022-08-11T18:45:19.878Z,76125.66
2022-08-11T18:48:13.237Z,76145.53
2022-08-11T18:51:29.866Z,76157.44
2022-08-11T18:54:14.814Z,76177.31
2022-08-11T18:57:04.135Z,76179.31
2022-08-11T18:59:56.767Z,76189.25
2022-08-11T19:02:49.612Z,76205.13
2022-08-11T19:06:05.946Z,76217.06
2022-08-11T19:08:52.999Z,76223.03
2022-08-11T19:11:43.445Z,76232.94
2022-08-11T19:14:31.156Z,76240.91
2022-08-11T19:17:43.647Z,76240.91
2022-08-11T19:20:31.425Z,76256.78
2022-08-11T19:23:18.160Z,76278.66
2022-08-11T19:26:06.055Z,76288.59
2022-08-11T19:28:53.530Z,76296.53
2022-08-11T19:31:44.327Z,76290.56
2022-08-11T19:34:40.649Z,76304.50
2022-08-11T19:37:27.663Z,76306.47
2022-08-11T19:40:16.708Z,76316.41
2022-08-11T19:43:03.639Z,76328.34
2022-08-11T19:46:01.556Z,76332.31
2022-08-11T19:48:47.953Z,76348.19
2022-08-11T19:51:34.499Z,76340.25
2022-08-11T19:54:21.392Z,76352.19
2022-08-11T19:57:09.130Z,76368.06
2022-08-11T19:59:55.075Z,76378.00
2022-08-11T20:02:41.196Z,76381.97
2022-08-11T20:05:27.269Z,76385.97
2022-08-11T20:08:16.854Z,76403.84
2022-08-11T20:11:05.678Z,76401.84
2022-08-11T20:13:51.471Z,76419.72
2022-08-11T20:16:38.970Z,76433.66
2022-08-11T20:19:56.565Z,76443.59
2022-08-11T20:22:32.897Z,76461.47
2022-08-11T20:25:19.392Z,76471.41
2022-08-11T20:28:05.867Z,76479.34
2022-08-11T20:30:51.903Z,76487.28
2022-08-11T20:33:39.133Z,76493.25
2022-08-11T20:36:25.532Z,76509.16
2022-08-11T20:39:11.801Z,76517.09
2022-08-11T20:41:59.804Z,76515.13
2022-08-11T20:44:47.224Z,76523.06
2022-08-11T20:47:56.513Z,76538.97
2022-08-11T20:50:45.996Z,76544.94
2022-08-11T20:53:35.799Z,76552.88
2022-08-11T20:56:22.597Z,76556.84
2022-08-11T20:59:18.359Z,76560.81
2022-08-11T21:02:09.768Z,76570.75
2022-08-11T21:04:57.388Z,76578.72
2022-08-11T21:07:46.056Z,76588.63
2022-08-11T21:10:43.923Z,76600.56
2022-08-11T21:13:33.498Z,76602.56
2022-08-11T21:16:25.464Z,76612.50
2022-08-11T21:19:18.238Z,76620.44
2022-08-11T21:22:05.202Z,76622.44
2022-08-11T21:24:52.203Z,76634.34
2022-08-11T21:27:39.532Z,76634.34
2022-08-11T21:30:25.542Z,76636.34
2022-08-11T21:33:12.294Z,76640.31
2022-08-11T21:35:57.898Z,76642.28
2022-08-11T21:38:44.240Z,76648.25
2022-08-11T21:41:31.147Z,76666.16
2022-08-11T21:44:17.502Z,76666.16
2022-08-11T21:47:05.244Z,76668.13
2022-08-11T21:49:53.304Z,76678.06
2022-08-11T21:52:39.150Z,76686.00
2022-08-11T21:55:25.480Z,76690.00
2022-08-11T21:58:12.342Z,76697.94
2022-08-11T22:00:57.860Z,76715.81
2022-08-11T22:03:49.432Z,76717.81
2022-08-11T22:06:36.719Z,76727.75
2022-08-11T22:09:22.624Z,76749.59
2022-08-11T22:12:34.324Z,76755.56
2022-08-11T22:15:14.414Z,76761.53
2022-08-11T22:17:59.816Z,76763.53
2022-08-11T22:20:46.004Z,76773.47
2022-08-11T22:23:36.982Z,76773.47
2022-08-11T22:26:24.245Z,76787.38
2022-08-11T22:29:09.854Z,76791.34
2022-08-11T22:31:57.703Z,76793.34
2022-08-11T22:34:53.318Z,76795.31
2022-08-11T22:37:40.763Z,76799.28
2022-08-11T22:40:28.466Z,76805.25
2022-08-11T22:43:13.939Z,76809.22
2022-08-11T22:45:59.204Z,76823.13
2022-08-11T22:48:48.832Z,76825.13
2022-08-11T22:51:36.183Z,76831.09
2022-08-11T22:54:23.111Z,76831.09
2022-08-11T22:57:09.427Z,76845.00
2022-08-11T22:59:56.055Z,76847.00
2022-08-11T23:02:42.452Z,76843.00
2022-08-11T23:05:28.146Z,76850.97
2022-08-11T23:08:15.349Z,76848.97
2022-08-11T23:11:01.767Z,76854.94
2022-08-11T23:13:50.408Z,76856.94
2022-08-11T23:16:39.563Z,76872.81
2022-08-11T23:20:08.355Z,76878.78
2022-08-11T23:22:49.292Z,76882.75
2022-08-11T23:25:36.066Z,76880.78
2022-08-11T23:28:21.723Z,76892.69
2022-08-11T23:31:12.095Z,76888.72
2022-08-11T23:34:00.949Z,76894.69
2022-08-11T23:36:47.768Z,76900.66
2022-08-11T23:39:34.611Z,76904.63
2022-08-11T23:42:21.602Z,76916.53
2022-08-11T23:45:09.921Z,76918.53
2022-08-11T23:47:56.712Z,76930.47
2022-08-11T23:50:43.516Z,76932.44
2022-08-11T23:53:29.385Z,76940.41
2022-08-11T23:56:14.864Z,76936.41
2022-08-11T23:59:00.179Z,76952.31
